Time,TemperatureF,DewpointF,PressureIn,WindDirection,WindDirectionDegrees,WindSpeedMPH,WindSpeedGustMPH,Humidity,HourlyPrecipIn,Conditions,Clouds,dailyrainin,SoftwareType,DateUTC
2013-03-07 00:00:00,32.0,29.8,23.95,North,0,0.0,-999.0,91,0.00,,,0.02,,2013-03-07 08:00:00,
2013-03-07 01:00:00,31.3,28.5,23.95,North,0,0.0,-999.0,89,0.00,,,0.02,,2013-03-07 09:00:00,
2013-03-07 02:00:00,31.5,29.3,23.94,North,0,0.0,-999.0,91,0.00,,,0.02,,2013-03-07 10:00:00,
2013-03-07 03:00:00,31.5,29.0,23.94,North,0,0.0,-999.0,90,0.00,,,0.02,,2013-03-07 11:00:00,
2013-03-07 04:00:00,31.7,28.9,23.93,North,0,0.0,-999.0,89,0.00,,,0.02,,2013-03-07 12:00:00,
2013-03-07 05:00:00,31.3,28.5,23.93,North,0,0.0,-999.0,89,0.00,,,0.02,,2013-03-07 13:00:00,
2013-03-07 06:00:00,30.8,28.3,23.93,North,0,0.0,-999.0,90,0.00,,,0.02,,2013-03-07 14:00:00,
2013-03-07 07:07:00,30.6,28.1,23.93,North,0,0.0,-999.0,90,0.00,,,0.02,,2013-03-07 15:07:00,
2013-03-07 08:00:00,32.4,28.7,23.94,North,0,0.0,-999.0,86,0.00,,,0.02,,2013-03-07 16:00:00,
2013-03-07 09:06:00,34.9,29.3,23.94,North,0,0.0,-999.0,80,0.00,,,0.02,,2013-03-07 17:06:00,
2013-03-07 10:00:00,34.7,30.3,23.94,North,0,0.0,-999.0,84,0.00,,,0.02,,2013-03-07 18:00:00,
2013-03-07 11:06:00,36.0,30.7,23.94,North,0,0.0,-999.0,81,0.00,,,0.02,,2013-03-07 19:06:00,
2013-03-07 12:00:00,38.2,31.6,23.93,North,0,0.0,-999.0,77,0.00,,,0.00,,2013-03-07 20:00:00,
2013-03-07 13:06:00,39.4,31.2,23.93,North,0,0.0,-999.0,72,0.00,,,0.00,,2013-03-07 21:06:00,
2013-03-07 14:00:00,39.1,33.1,23.91,North,0,0.0,-999.0,79,0.00,,,0.00,,2013-03-07 22:00:00,
2013-03-07 15:06:00,37.4,31.9,23.91,North,0,0.0,-999.0,80,0.00,,,0.00,,2013-03-07 23:06:00,
2013-03-07 16:00:00,38.0,31.4,23.90,North,0,0.0,-999.0,77,0.00,,,0.00,,2013-03-08 00:00:00,
2013-03-07 17:06:00,37.1,30.5,23.90,North,0,0.0,-999.0,77,0.00,,,0.00,,2013-03-08 01:06:00,
2013-03-07 18:00:00,34.4,29.3,23.90,North,0,0.0,-999.0,82,0.00,,,0.00,,2013-03-08 02:00:00,
2013-03-07 19:00:00,34.0,28.4,23.89,North,0,0.0,-999.0,80,0.00,,,0.00,,2013-03-08 03:00:00,
2013-03-07 20:00:00,33.8,27.9,23.89,North,0,0.0,-999.0,79,0.00,,,0.00,,2013-03-08 04:00:00,
2013-03-07 21:00:00,32.9,27.5,23.88,North,0,0.0,-999.0,80,0.00,,,0.00,,2013-03-08 05:00:00,
2013-03-07 22:00:00,32.0,26.9,23.87,North,0,0.0,-999.0,81,0.00,,,0.00,,2013-03-08 06:00:00,
2013-03-07 23:00:00,31.3,26.5,23.86,North,0,0.0,-999.0,82,0.00,,,0.00,,2013-03-08 07:00:00,